createdAt,value
2023-01-01T00:01:56.255Z,99708.53
2023-01-01T00:04:24.179Z,99718.13
2023-01-01T00:06:51.974Z,99726.09
2023-01-01T00:09:39.181Z,99700.53
2023-01-01T00:12:07.583Z,99716.72
2023-01-01T00:14:35.468Z,99700.72
2023-01-01T00:17:03.389Z,99722.13
2023-01-01T00:19:31.295Z,99735.19
2023-01-01T00:22:02.161Z,99712.78
2023-01-01T00:24:39.213Z,99703.66
2023-01-01T00:27:07.274Z,99725.78
2023-01-01T00:29:35.071Z,99737.00
2023-01-01T00:32:02.981Z,99679.13
2023-01-01T00:34:30.902Z,99725.00
2023-01-01T00:36:59.170Z,99724.09
2023-01-01T00:39:27.003Z,99728.38
2023-01-01T00:41:56.208Z,99736.22
2023-01-01T00:44:24.032Z,99696.81
2023-01-01T00:46:51.845Z,99726.16
2023-01-01T00:49:19.657Z,99723.63
2023-01-01T00:51:47.467Z,99734.09
2023-01-01T00:54:15.301Z,99708.66
2023-01-01T00:56:43.149Z,99723.53
2023-01-01T00:59:12.362Z,99728.50
2023-01-01T01:01:41.075Z,99759.84
2023-01-01T01:04:09.433Z,99754.75
2023-01-01T01:06:37.363Z,99747.97
2023-01-01T01:09:06.966Z,99739.94
2023-01-01T01:11:34.903Z,99739.09
2023-01-01T01:14:02.726Z,99736.53
2023-01-01T01:16:34.307Z,99737.38
2023-01-01T01:19:05.373Z,99743.94
2023-01-01T01:21:35.125Z,99740.00
2023-01-01T01:24:04.648Z,99736.69
2023-01-01T01:26:34.558Z,99735.91
2023-01-01T01:29:02.547Z,99743.59
2023-01-01T01:31:34.552Z,99737.38
2023-01-01T01:34:02.390Z,99733.69
2023-01-01T01:36:30.583Z,99749.28
2023-01-01T01:38:58.476Z,99745.75
2023-01-01T01:41:28.970Z,99737.56
2023-01-01T01:43:59.814Z,99749.50
2023-01-01T01:46:33.831Z,99740.44
2023-01-01T01:49:06.076Z,99733.22
2023-01-01T01:51:38.047Z,99721.78
2023-01-01T01:54:11.835Z,99746.94
2023-01-01T01:56:46.229Z,99752.59
2023-01-01T01:59:14.815Z,99738.81
2023-01-01T02:01:44.123Z,99745.72
2023-01-01T02:04:13.285Z,99737.75
2023-01-01T02:06:42.005Z,99716.91
2023-01-01T02:09:10.836Z,99740.09
2023-01-01T02:11:38.756Z,99732.38
2023-01-01T02:14:07.219Z,99746.38
2023-01-01T02:16:40.741Z,99743.34
2023-01-01T02:19:19.161Z,99731.28
2023-01-01T02:22:00.813Z,99762.06
2023-01-01T02:24:49.868Z,99740.28
2023-01-01T02:27:28.351Z,99773.94
2023-01-01T02:30:03.565Z,99744.47
2023-01-01T02:32:37.895Z,99755.66
2023-01-01T02:35:24.736Z,99744.41
2023-01-01T02:37:56.054Z,99702.44
2023-01-01T02:40:25.995Z,99767.44
2023-01-01T02:42:55.065Z,99776.63
2023-01-01T02:45:24.711Z,99776.88
2023-01-01T02:47:52.578Z,99764.38
2023-01-01T02:50:23.395Z,99773.66
2023-01-01T02:53:02.903Z,99787.78
2023-01-01T02:55:41.051Z,99785.03
2023-01-01T02:58:33.515Z,99758.25
2023-01-01T03:01:09.367Z,99782.25
2023-01-01T03:03:42.552Z,99807.03
2023-01-01T03:06:23.935Z,99815.22
2023-01-01T03:09:03.755Z,99801.84
2023-01-01T03:11:39.724Z,99830.25
2023-01-01T03:14:13.735Z,99824.38
2023-01-01T03:16:49.591Z,99827.88
2023-01-01T03:19:20.275Z,99824.50
2023-01-01T03:21:52.590Z,99827.16
2023-01-01T03:24:27.039Z,99839.47
2023-01-01T03:26:58.564Z,99824.78
2023-01-01T03:29:29.885Z,99742.09
2023-01-01T03:32:01.193Z,99845.94
2023-01-01T03:34:33.893Z,99846.97
2023-01-01T03:37:06.820Z,99841.63
2023-01-01T03:39:39.295Z,99837.25
2023-01-01T03:42:17.764Z,99824.25
2023-01-01T03:44:48.868Z,99817.19
2023-01-01T03:47:18.452Z,99843.56
2023-01-01T03:49:47.335Z,99832.53
2023-01-01T03:52:27.428Z,99862.63
2023-01-01T03:55:01.783Z,99857.41
2023-01-01T03:57:36.094Z,99898.22
2023-01-01T04:00:09.086Z,99865.25
2023-01-01T04:02:43.870Z,99877.34
2023-01-01T04:05:12.779Z,99893.13
2023-01-01T04:10:18.206Z,99869.94
2023-01-01T04:12:48.557Z,99880.25
2023-01-01T04:15:16.776Z,99868.94
2023-01-01T04:17:46.367Z,99864.91
2023-01-01T04:20:15.288Z,99873.47
2023-01-01T04:22:43.207Z,99851.19
2023-01-01T04:25:12.315Z,99880.41
2023-01-01T04:27:40.848Z,99874.25
2023-01-01T04:30:11.520Z,99882.09
2023-01-01T04:32:39.893Z,99881.50
2023-01-01T04:35:12.099Z,99892.78
2023-01-01T04:37:40.408Z,99875.53
2023-01-01T04:40:09.766Z,99879.06
2023-01-01T04:42:37.762Z,99905.78
2023-01-01T04:45:06.801Z,99897.78
2023-01-01T04:47:34.722Z,99906.63
2023-01-01T04:50:02.505Z,99913.56
2023-01-01T04:52:31.675Z,99911.00
2023-01-01T04:54:59.533Z,99929.22
2023-01-01T04:57:27.359Z,99941.38
2023-01-01T04:59:55.126Z,99924.34
2023-01-01T05:02:23.076Z,99930.94
2023-01-01T05:04:51.099Z,99920.44
2023-01-01T05:07:18.962Z,99950.00
2023-01-01T05:09:48.163Z,99944.50
2023-01-01T05:12:16.316Z,99931.44
2023-01-01T05:14:44.148Z,99915.50
2023-01-01T05:17:11.917Z,99940.88
2023-01-01T05:19:39.748Z,99946.88
2023-01-01T05:22:10.900Z,99932.19
2023-01-01T05:24:39.251Z,99903.75
2023-01-01T05:27:08.765Z,99943.09
2023-01-01T05:29:36.566Z,99960.47
2023-01-01T05:32:04.548Z,99936.09
2023-01-01T05:36:59.103Z,99935.53
2023-01-01T05:39:26.908Z,99943.88
2023-01-01T05:41:54.686Z,99941.28
2023-01-01T05:44:23.920Z,99926.50
2023-01-01T05:46:51.805Z,99959.56
2023-01-01T05:49:19.606Z,99945.06
2023-01-01T05:51:47.435Z,99945.72
2023-01-01T05:56:41.934Z,99943.25
2023-01-01T05:59:11.152Z,99943.88
2023-01-01T06:01:45.344Z,99932.47
2023-01-01T06:04:14.081Z,99965.59
2023-01-01T06:06:41.995Z,100011.59
2023-01-01T06:09:11.820Z,99957.63
2023-01-01T06:11:39.678Z,99979.31
2023-01-01T06:14:07.477Z,99987.88
2023-01-01T06:16:35.752Z,99977.44
2023-01-01T06:19:04.986Z,99986.78
2023-01-01T06:21:32.822Z,99982.41
2023-01-01T06:24:01.406Z,99972.91
2023-01-01T06:26:31.132Z,99960.50
2023-01-01T06:28:59.986Z,99938.78
2023-01-01T06:31:29.259Z,99976.19
2023-01-01T06:33:57.269Z,99986.78
2023-01-01T06:36:27.653Z,99982.34
2023-01-01T06:38:58.639Z,100002.44
2023-01-01T06:41:28.648Z,99991.19
2023-01-01T06:43:57.241Z,99967.72
2023-01-01T06:46:27.540Z,100009.50
2023-01-01T06:48:57.908Z,100029.38
2023-01-01T06:51:29.240Z,100024.25
2023-01-01T06:53:59.958Z,100039.03
2023-01-01T06:56:28.195Z,100012.00
2023-01-01T06:58:56.082Z,100047.66
2023-01-01T07:01:27.297Z,100040.50
2023-01-01T07:03:56.878Z,100045.66
2023-01-01T07:06:25.970Z,100034.03
2023-01-01T07:08:55.378Z,100068.34
2023-01-01T07:11:23.261Z,100062.38
2023-01-01T07:13:51.136Z,100044.16
2023-01-01T07:16:19.480Z,100047.66
2023-01-01T07:18:49.095Z,100063.22
2023-01-01T07:21:34.062Z,100078.81
2023-01-01T07:24:05.559Z,100076.41
2023-01-01T07:26:34.721Z,100084.25
2023-01-01T07:29:07.323Z,100091.31
2023-01-01T07:31:36.569Z,100069.81
2023-01-01T07:34:04.448Z,100095.19
2023-01-01T07:36:32.264Z,100104.81
2023-01-01T07:39:00.127Z,100121.56
2023-01-01T07:41:29.361Z,100108.38
2023-01-01T07:43:57.224Z,100114.97
2023-01-01T07:46:25.112Z,100116.00
2023-01-01T07:48:53.043Z,100117.88
2023-01-01T07:51:20.946Z,100145.66
2023-01-01T07:53:48.747Z,100138.06
2023-01-01T07:56:16.599Z,100131.34
2023-01-01T07:58:45.904Z,100162.94
2023-01-01T08:01:15.699Z,100142.84
2023-01-01T08:03:43.985Z,100158.41
2023-01-01T08:06:13.163Z,100153.34
2023-01-01T08:08:41.290Z,100161.41
2023-01-01T08:11:09.496Z,100134.25
2023-01-01T08:13:37.378Z,100157.81
2023-01-01T08:16:07.283Z,100177.94
2023-01-01T08:18:35.253Z,100165.78
2023-01-01T08:21:03.348Z,100132.09
2023-01-01T08:23:31.714Z,100195.00
2023-01-01T08:26:01.516Z,100192.53
2023-01-01T08:28:29.937Z,100197.97
2023-01-01T08:30:57.875Z,100197.91
2023-01-01T08:33:27.098Z,100200.63
2023-01-01T08:35:55.074Z,100206.97
2023-01-01T08:38:23.001Z,100241.69
2023-01-01T08:40:50.815Z,100224.53
2023-01-01T08:43:18.912Z,100237.53
2023-01-01T08:45:46.873Z,100241.81
2023-01-01T08:48:14.685Z,100249.78
2023-01-01T08:50:43.823Z,100274.16
2023-01-01T08:53:11.700Z,100245.47
2023-01-01T08:55:39.527Z,100257.50
2023-01-01T08:58:08.515Z,100272.38
2023-01-01T09:00:36.688Z,100266.25
2023-01-01T09:03:04.640Z,100290.50
2023-01-01T09:05:32.544Z,100291.16
2023-01-01T09:08:01.709Z,100296.50
2023-01-01T09:10:29.509Z,100293.38
2023-01-01T09:12:57.293Z,100288.75
2023-01-01T09:15:25.181Z,100296.00
2023-01-01T09:17:53.064Z,100322.44
2023-01-01T09:20:20.855Z,100312.16
2023-01-01T09:22:48.721Z,100308.59
2023-01-01T09:25:18.280Z,100318.28
2023-01-01T09:27:46.184Z,100315.47
2023-01-01T09:30:15.020Z,100318.28
2023-01-01T09:32:42.785Z,100325.31
2023-01-01T09:35:11.214Z,100340.97
2023-01-01T09:37:39.061Z,100339.56
2023-01-01T09:40:08.813Z,100337.94
2023-01-01T09:42:46.372Z,100333.78
2023-01-01T09:45:22.905Z,100329.59
2023-01-01T09:47:54.332Z,100292.13
2023-01-01T09:50:25.368Z,100354.56
2023-01-01T09:52:57.579Z,100369.81
2023-01-01T09:55:30.138Z,100357.72
2023-01-01T09:57:59.899Z,100382.25
2023-01-01T10:00:30.807Z,100392.41
2023-01-01T10:03:18.841Z,100403.56
2023-01-01T10:05:56.042Z,100386.94
2023-01-01T10:08:38.469Z,100407.72
2023-01-01T10:11:15.064Z,100392.53
2023-01-01T10:13:46.201Z,100410.94
2023-01-01T10:16:25.046Z,100428.03
2023-01-01T10:18:56.693Z,100393.25
2023-01-01T10:21:28.381Z,100426.56
2023-01-01T10:23:58.740Z,100414.94
2023-01-01T10:26:29.998Z,100412.31
2023-01-01T10:29:04.346Z,100410.19
2023-01-01T10:31:35.145Z,100407.53
2023-01-01T10:34:24.371Z,100308.06
2023-01-01T10:36:54.934Z,100404.19
2023-01-01T10:39:23.468Z,100402.13
2023-01-01T10:41:52.051Z,100321.94
2023-01-01T10:44:31.305Z,100425.13
2023-01-01T10:47:01.073Z,100414.25
2023-01-01T10:49:28.848Z,100414.06
2023-01-01T10:51:56.720Z,100394.22
2023-01-01T10:54:34.092Z,100403.06
2023-01-01T10:57:14.871Z,100385.91
2023-01-01T10:59:51.682Z,100401.44
2023-01-01T11:02:23.950Z,100378.94
2023-01-01T11:04:53.420Z,100414.69
2023-01-01T11:07:29.482Z,100426.84
2023-01-01T11:10:04.852Z,100430.59
2023-01-01T11:15:36.788Z,100453.38
2023-01-01T11:18:06.681Z,100450.78
2023-01-01T11:20:35.245Z,100455.03
2023-01-01T11:23:20.013Z,100465.19
2023-01-01T11:26:05.996Z,100463.09
2023-01-01T11:28:35.056Z,100410.34
2023-01-01T11:31:16.761Z,100451.69
2023-01-01T11:33:47.775Z,100483.94
2023-01-01T11:36:23.533Z,100466.00
2023-01-01T11:39:05.441Z,100435.59
2023-01-01T11:41:44.761Z,100494.56
2023-01-01T11:44:14.950Z,100486.16
2023-01-01T11:46:47.347Z,100481.78
2023-01-01T11:49:22.481Z,100465.72
2023-01-01T11:51:50.335Z,100483.16
2023-01-01T11:54:33.103Z,100489.50
2023-01-01T11:57:05.841Z,100479.44
2023-01-01T11:59:42.730Z,100492.00
2023-01-01T12:02:15.826Z,100476.56
2023-01-01T12:04:49.276Z,100480.50
2023-01-01T12:07:19.975Z,100483.16
2023-01-01T12:09:54.870Z,100480.66
2023-01-01T12:12:28.693Z,100510.41
2023-01-01T12:15:03.591Z,100462.63
2023-01-01T12:17:39.431Z,100518.44
2023-01-01T12:20:14.519Z,100497.25
2023-01-01T12:22:42.946Z,100490.50
2023-01-01T12:25:14.557Z,100525.66
2023-01-01T12:27:55.501Z,100509.13
2023-01-01T12:30:25.228Z,100538.47
2023-01-01T12:33:20.127Z,100492.69
2023-01-01T12:36:07.276Z,100531.66
2023-01-01T12:38:56.546Z,100551.09
2023-01-01T12:41:33.833Z,100561.63
2023-01-01T12:44:12.624Z,100572.53
2023-01-01T12:46:51.916Z,100505.59
2023-01-01T12:49:50.454Z,100521.00
2023-01-01T12:52:30.765Z,100561.00
2023-01-01T12:55:32.255Z,100590.34
2023-01-01T12:58:07.412Z,100597.72
2023-01-01T13:00:38.300Z,100583.78
2023-01-01T13:03:11.561Z,100584.16
2023-01-01T13:05:43.879Z,100593.19
2023-01-01T13:08:11.681Z,100600.19
2023-01-01T13:10:41.414Z,100586.91
2023-01-01T13:13:09.424Z,100597.69
2023-01-01T13:15:48.360Z,100618.16
2023-01-01T13:18:23.565Z,100607.78
2023-01-01T13:21:15.427Z,100592.78
2023-01-01T13:23:54.250Z,100606.31
2023-01-01T13:26:36.276Z,100615.84
2023-01-01T13:29:35.860Z,100624.00
2023-01-01T13:32:06.734Z,100613.25
2023-01-01T13:34:55.745Z,100613.31
2023-01-01T13:37:45.590Z,100585.72
2023-01-01T13:40:53.769Z,100621.16
2023-01-01T13:43:31.975Z,100621.97
2023-01-01T13:46:12.776Z,100622.03
2023-01-01T13:49:14.377Z,100637.78
2023-01-01T13:52:06.562Z,100650.09
2023-01-01T13:55:02.876Z,100637.84
2023-01-01T13:57:52.795Z,100609.91
2023-01-01T14:00:23.312Z,100641.28
2023-01-01T14:02:59.150Z,100643.16
2023-01-01T14:05:32.579Z,100652.38
2023-01-01T14:08:00.833Z,100649.94
2023-01-01T14:10:32.288Z,100649.72
2023-01-01T14:13:16.761Z,100656.00
2023-01-01T14:15:53.577Z,100655.38
2023-01-01T14:18:26.620Z,100670.81
2023-01-01T14:20:55.093Z,100679.53
2023-01-01T14:23:31.734Z,100680.53
2023-01-01T14:26:03.095Z,100704.06
2023-01-01T14:28:33.316Z,100686.72
2023-01-01T14:31:10.726Z,100675.09
2023-01-01T14:33:39.800Z,100707.88
2023-01-01T14:36:17.804Z,100693.38
2023-01-01T14:38:47.134Z,100715.97
2023-01-01T14:41:21.705Z,100703.25
2023-01-01T14:43:51.817Z,100707.38
2023-01-01T14:46:23.499Z,100708.53
2023-01-01T14:48:54.941Z,100725.84
2023-01-01T14:51:25.629Z,100686.44
2023-01-01T14:53:54.976Z,100727.53
2023-01-01T14:56:27.008Z,100678.84
2023-01-01T14:58:56.025Z,100725.38
2023-01-01T15:01:26.349Z,100742.53
2023-01-01T15:03:59.781Z,100710.84
2023-01-01T15:06:29.243Z,100718.06
2023-01-01T15:08:57.902Z,100745.44
2023-01-01T15:11:29.353Z,100748.09
2023-01-01T15:14:00.190Z,100740.38
2023-01-01T15:16:31.105Z,100747.44
2023-01-01T15:19:17.846Z,100745.78
2023-01-01T15:21:45.765Z,100750.34
2023-01-01T15:24:15.766Z,100762.53
2023-01-01T15:26:50.986Z,100758.31
2023-01-01T15:29:27.190Z,100749.78
2023-01-01T15:31:58.041Z,100783.38
2023-01-01T15:34:30.341Z,100776.63
2023-01-01T15:37:07.449Z,100777.44
2023-01-01T15:39:46.254Z,100793.13
2023-01-01T15:42:32.077Z,100791.47
2023-01-01T15:45:15.668Z,100781.94
2023-01-01T15:47:43.430Z,100788.03
2023-01-01T15:50:15.080Z,100789.81
2023-01-01T15:52:49.194Z,100812.31
2023-01-01T15:55:19.901Z,100756.53
2023-01-01T15:57:51.695Z,100818.41
2023-01-01T16:00:22.439Z,100805.41
2023-01-01T16:02:52.610Z,100780.50
2023-01-01T16:05:24.066Z,100824.28
2023-01-01T16:07:59.561Z,100828.53
2023-01-01T16:10:27.680Z,100824.16
2023-01-01T16:12:56.864Z,100828.38
2023-01-01T16:15:24.664Z,100829.28
2023-01-01T16:17:52.835Z,100832.69
2023-01-01T16:20:22.669Z,100827.47
2023-01-01T16:22:50.520Z,100832.66
2023-01-01T16:25:20.768Z,100813.78
2023-01-01T16:27:49.430Z,100798.03
2023-01-01T16:30:18.624Z,100826.53
2023-01-01T16:32:49.167Z,100819.63
2023-01-01T16:35:17.279Z,100824.00
2023-01-01T16:37:45.107Z,100806.59
2023-01-01T16:40:13.327Z,100813.53
2023-01-01T16:42:41.093Z,100806.59
2023-01-01T16:45:14.258Z,100815.19
2023-01-01T16:47:43.419Z,100812.59
2023-01-01T16:50:12.346Z,100805.94
2023-01-01T16:52:44.728Z,100818.75
2023-01-01T16:55:13.522Z,100829.13
2023-01-01T16:57:41.585Z,100830.84
2023-01-01T17:00:10.742Z,100825.59
2023-01-01T17:02:38.696Z,100832.50
2023-01-01T17:05:08.750Z,100839.44
2023-01-01T17:07:36.509Z,100827.34
2023-01-01T17:10:04.506Z,100824.59
2023-01-01T17:12:32.927Z,100840.31
2023-01-01T17:15:00.873Z,100836.00
2023-01-01T17:17:28.644Z,100834.09
2023-01-01T17:19:56.389Z,100840.16
2023-01-01T17:22:29.218Z,100844.56
2023-01-01T17:25:00.102Z,100842.91
2023-01-01T17:27:27.890Z,100843.03
2023-01-01T17:29:55.716Z,100841.38
2023-01-01T17:32:23.541Z,100820.78
2023-01-01T17:34:51.437Z,100692.16
2023-01-01T17:37:19.358Z,100848.50
2023-01-01T17:39:48.520Z,100841.63
2023-01-01T17:42:16.521Z,100845.16
2023-01-01T17:44:44.301Z,100859.88
2023-01-01T17:47:12.241Z,100858.16
2023-01-01T17:49:41.212Z,100867.63
2023-01-01T17:52:09.080Z,100872.69
2023-01-01T17:54:37.200Z,100862.41
2023-01-01T17:57:06.381Z,100875.41
2023-01-01T17:59:34.505Z,100848.66
2023-01-01T18:02:02.484Z,100885.84
2023-01-01T18:04:30.541Z,100884.97
2023-01-01T18:07:05.932Z,100888.34
2023-01-01T18:09:34.074Z,100886.75
2023-01-01T18:12:01.877Z,100885.03
2023-01-01T18:14:31.094Z,100879.94
2023-01-01T18:16:59.227Z,100884.38
2023-01-01T18:19:27.715Z,100894.00
2023-01-01T18:21:55.586Z,100890.56
2023-01-01T18:24:23.373Z,100890.63
2023-01-01T18:26:51.128Z,100895.88
2023-01-01T18:29:19.087Z,100895.97
2023-01-01T18:31:48.607Z,100893.38
2023-01-01T18:34:16.449Z,100890.75
2023-01-01T18:36:46.966Z,100894.25
2023-01-01T18:39:17.750Z,100885.59
2023-01-01T18:42:20.793Z,100897.59
2023-01-01T18:44:48.795Z,100896.00
2023-01-01T18:47:19.606Z,100898.50
2023-01-01T18:49:52.029Z,100875.22
2023-01-01T18:52:24.609Z,100862.25
2023-01-01T18:55:00.336Z,100881.25
2023-01-01T18:57:29.737Z,100888.22
2023-01-01T19:00:00.824Z,100890.81
2023-01-01T19:02:38.515Z,100883.06
2023-01-01T19:05:18.767Z,100882.25
2023-01-01T19:07:52.446Z,100871.00
2023-01-01T19:10:20.309Z,100880.47
2023-01-01T19:12:49.210Z,100864.91
2023-01-01T19:15:19.547Z,100833.91
2023-01-01T19:17:48.721Z,100874.41
2023-01-01T19:20:19.422Z,100838.28
2023-01-01T19:22:47.798Z,100866.66
2023-01-01T19:25:38.642Z,100836.72
2023-01-01T19:28:28.887Z,100873.56
2023-01-01T19:30:56.951Z,100852.97
2023-01-01T19:33:26.305Z,100871.88
2023-01-01T19:35:54.199Z,100882.25
2023-01-01T19:38:22.222Z,100863.31
2023-01-01T19:40:50.080Z,100857.34
2023-01-01T19:43:17.874Z,100869.53
2023-01-01T19:45:45.645Z,100866.03
2023-01-01T19:48:13.470Z,100873.72
2023-01-01T19:50:42.622Z,100842.88
2023-01-01T19:53:10.390Z,100881.53
2023-01-01T19:55:40.090Z,100875.53
2023-01-01T19:58:07.875Z,100873.75
2023-01-01T20:00:35.765Z,100880.78
2023-01-01T20:03:34.523Z,100873.13
2023-01-01T20:05:53.776Z,100888.63
2023-01-01T20:08:22.142Z,100875.53
2023-01-01T20:10:50.048Z,100877.94
2023-01-01T20:13:17.804Z,100889.22
2023-01-01T20:15:46.982Z,100866.03
2023-01-01T20:18:15.809Z,100893.44
2023-01-01T20:21:04.191Z,100896.06
2023-01-01T20:23:33.435Z,100887.31
2023-01-01T20:26:01.319Z,100881.94
2023-01-01T20:28:42.983Z,100880.22
2023-01-01T20:31:10.865Z,100862.25
2023-01-01T20:33:38.743Z,100889.75
2023-01-01T20:36:24.900Z,100887.88
2023-01-01T20:38:54.097Z,100876.47
2023-01-01T20:41:24.807Z,100873.13
2023-01-01T20:43:53.499Z,100879.16
2023-01-01T20:46:21.582Z,100881.66
2023-01-01T20:48:49.578Z,100885.13
2023-01-01T20:51:17.586Z,100889.22
2023-01-01T20:53:45.412Z,100893.63
2023-01-01T20:56:14.660Z,100890.84
2023-01-01T20:58:48.040Z,100904.72
2023-01-01T21:01:18.007Z,100905.53
2023-01-01T21:03:46.059Z,100913.34
2023-01-01T21:06:18.460Z,100907.25
2023-01-01T21:08:49.797Z,100910.81
2023-01-01T21:11:19.039Z,100918.50
2023-01-01T21:13:47.323Z,100915.81
2023-01-01T21:16:19.040Z,100914.91
2023-01-01T21:18:48.574Z,100917.50
2023-01-01T21:21:19.679Z,100914.81
2023-01-01T21:23:47.936Z,100916.56
2023-01-01T21:26:20.178Z,100905.19
2023-01-01T21:28:48.302Z,100909.53
2023-01-01T21:31:16.390Z,100898.19
2023-01-01T21:33:45.597Z,100913.06
2023-01-01T21:36:18.915Z,100910.53
2023-01-01T21:38:47.914Z,100901.75
2023-01-01T21:41:23.951Z,100896.47
2023-01-01T21:43:55.806Z,100902.59
2023-01-01T21:46:33.225Z,100911.22
2023-01-01T21:49:04.183Z,100915.56
2023-01-01T21:51:33.783Z,100924.19
2023-01-01T21:54:20.073Z,100924.16
2023-01-01T21:56:55.582Z,100921.53
2023-01-01T21:59:29.476Z,100911.13
2023-01-01T22:02:26.118Z,100913.66
2023-01-01T22:04:54.076Z,100908.50
2023-01-01T22:10:17.419Z,100910.16
2023-01-01T22:12:47.974Z,100902.53
2023-01-01T22:15:29.693Z,100908.53
2023-01-01T22:18:14.951Z,100908.50
2023-01-01T22:20:45.262Z,100892.84
2023-01-01T22:23:23.810Z,100892.81
2023-01-01T22:25:52.675Z,100891.06
2023-01-01T22:28:24.383Z,100895.66
2023-01-01T22:30:56.304Z,100882.47
2023-01-01T22:33:28.934Z,100851.59
2023-01-01T22:35:57.888Z,100891.09
2023-01-01T22:38:31.209Z,100887.63
2023-01-01T22:40:59.084Z,100890.38
2023-01-01T22:43:31.675Z,100883.50
2023-01-01T22:46:03.949Z,100880.44
2023-01-01T22:48:36.963Z,100868.34
2023-01-01T22:51:08.931Z,100869.28
2023-01-01T22:53:36.719Z,100875.38
2023-01-01T22:56:04.685Z,100867.50
2023-01-01T22:58:33.877Z,100876.16
2023-01-01T23:01:01.926Z,100872.53
2023-01-01T23:03:29.865Z,100859.03
2023-01-01T23:05:58.328Z,100872.94
2023-01-01T23:08:26.908Z,100885.00
2023-01-01T23:10:55.126Z,100857.00
2023-01-01T23:13:40.387Z,100856.97
2023-01-01T23:16:09.919Z,100854.56
2023-01-01T23:18:38.429Z,100828.50
2023-01-01T23:21:09.636Z,100843.88
2023-01-01T23:23:38.867Z,100849.28
2023-01-01T23:26:07.398Z,100856.38
2023-01-01T23:28:35.752Z,100843.44
2023-01-01T23:31:06.357Z,100852.06
2023-01-01T23:33:36.253Z,100836.41
2023-01-01T23:36:04.914Z,100849.28
2023-01-01T23:38:33.198Z,100853.53
2023-01-01T23:41:01.290Z,100853.63
2023-01-01T23:43:29.091Z,100850.94
2023-01-01T23:45:56.948Z,100848.34
2023-01-01T23:48:24.980Z,100837.97
2023-01-01T23:50:54.153Z,100825.22
2023-01-01T23:53:21.910Z,100819.94
2023-01-01T23:55:49.706Z,100818.16
2023-01-01T23:58:17.824Z,100818.25
